Time;durP1;ratioP1;P1;durP2;ratioP2;P2;SDS_P1;SDS_P2;PMS_P1;PMS_P2;Temp;Humidity;BMP_temperature;BMP_pressure;BME280_temperature;BME280_humidity;BME280_pressure;Samples;Min_cycle;Max_cycle;Signal;HPM_P1;HPM_P2
2023/10/28 00:00:50;;;;;;;3.67;1.02;;;;;;;18.61;47.34;92858.69;4993164;28;20489;-77
2023/10/28 00:03:16;;;;;;;4.20;1.00;;;;;;;18.81;46.79;92873.34;4995189;28;20100;-78
2023/10/28 00:05:42;;;;;;;2.78;0.80;;;;;;;18.42;47.02;92864.47;4995932;28;20396;-79
2023/10/28 00:08:07;;;;;;;1.83;1.02;;;;;;;18.56;47.10;92869.09;4995966;28;20033;-77
2023/10/28 00:10:34;;;;;;;2.15;0.98;;;;;;;18.66;46.69;92879.84;4995470;28;20026;-78
2023/10/28 00:12:59;;;;;;;5.13;1.17;;;;;;;18.73;46.27;92881.78;4994687;28;20093;-79
2023/10/28 00:15:25;;;;;;;0.90;0.60;;;;;;;18.80;45.98;92876.41;4994973;28;20425;-78
2023/10/28 00:17:51;;;;;;;4.07;1.10;;;;;;;18.83;46.21;92889.88;5011705;28;20061;-78
2023/10/28 00:20:18;;;;;;;1.67;0.90;;;;;;;18.73;46.58;92885.25;4992316;28;20572;-77
2023/10/28 00:22:47;;;;;;;1.35;0.75;;;;;;;18.54;46.38;92874.84;4995766;28;20021;-78
2023/10/28 00:25:14;;;;;;;2.70;0.80;;;;;;;18.58;46.23;92854.06;4993673;28;20036;-78
2023/10/28 00:27:40;;;;;;;2.28;0.80;;;;;;;18.53;46.89;92861.78;4995901;28;20496;-79
2023/10/28 00:30:10;;;;;;;1.88;0.85;;;;;;;18.70;46.51;92851.03;4994650;28;20049;-78
2023/10/28 00:32:39;;;;;;;3.58;1.13;;;;;;;18.92;46.14;92891.41;4996255;28;20033;-78
2023/10/28 00:35:08;;;;;;;2.47;0.85;;;;;;;18.92;46.17;92891.41;4992239;28;20029;-79
2023/10/28 00:37:34;;;;;;;2.85;0.68;;;;;;;19.03;45.46;92879.44;4996877;28;20014;-78
2023/10/28 00:40:00;;;;;;;2.97;0.65;;;;;;;19.04;45.46;92882.91;4992981;28;20113;-78
2023/10/28 00:42:26;;;;;;;0.98;0.60;;;;;;;19.17;45.82;92889.41;4995005;28;20088;-78
2023/10/28 00:44:54;;;;;;;3.92;0.70;;;;;;;19.10;45.29;92898.31;4992041;28;20482;-78
2023/10/28 00:47:20;;;;;;;3.20;1.10;;;;;;;19.02;45.35;92891.38;4996208;28;20062;-78
2023/10/28 00:49:45;;;;;;;3.10;0.73;;;;;;;18.99;45.71;92910.25;4995132;28;20119;-79
2023/10/28 00:52:11;;;;;;;1.80;0.70;;;;;;;18.81;46.04;92884.09;4996171;28;20037;-77
2023/10/28 00:54:37;;;;;;;4.32;0.85;;;;;;;18.86;46.41;92897.19;4985189;28;20042;-78
2023/10/28 00:57:03;;;;;;;2.58;1.10;;;;;;;18.96;45.54;92889.47;4996841;28;20046;-78
2023/10/28 00:59:28;;;;;;;2.80;0.88;;;;;;;19.01;45.82;92886.38;4994506;28;20500;-78
2023/10/28 01:01:54;;;;;;;2.85;0.65;;;;;;;19.06;45.12;92872.53;4998686;28;20030;-78
2023/10/28 01:04:20;;;;;;;0.95;0.75;;;;;;;19.19;45.08;92897.88;4994706;28;20361;-78
2023/10/28 01:06:46;;;;;;;1.17;0.68;;;;;;;19.12;45.01;92897.91;4999382;28;20033;-78
2023/10/28 01:09:12;;;;;;;1.90;0.82;;;;;;;19.22;45.48;92907.88;4998338;28;20363;-77
2023/10/28 01:11:39;;;;;;;1.60;0.80;;;;;;;19.18;45.41;92917.91;4995298;28;20045;-78
2023/10/28 01:14:06;;;;;;;2.75;1.00;;;;;;;18.92;46.16;92888.72;4999784;28;20121;-79
2023/10/28 01:16:32;;;;;;;1.38;0.80;;;;;;;18.82;45.68;92857.94;4999044;28;20045;-79
2023/10/28 01:18:57;;;;;;;3.13;1.20;;;;;;;19.04;45.92;92897.16;4998040;28;20674;-78
2023/10/28 01:21:23;;;;;;;2.75;1.00;;;;;;;19.17;46.01;92897.50;4999340;28;20033;-78
2023/10/28 01:23:49;;;;;;;3.28;1.10;;;;;;;19.22;45.54;92913.28;4995794;28;20550;-79
2023/10/28 01:26:16;;;;;;;4.97;1.10;;;;;;;19.27;45.52;92915.56;4998594;28;20125;-78
2023/10/28 01:28:41;;;;;;;5.47;1.13;;;;;;;19.09;46.17;92906.75;4993651;28;20026;-78
2023/10/28 01:31:08;;;;;;;2.67;1.10;;;;;;;18.98;46.08;92903.31;5000138;28;20496;-79
2023/10/28 01:33:33;;;;;;;2.75;1.00;;;;;;;18.96;46.37;92905.63;4995648;28;20100;-78
2023/10/28 01:35:59;;;;;;;1.67;0.98;;;;;;;18.80;46.06;92903.34;4995451;28;20113;-78
2023/10/28 01:38:26;;;;;;;2.60;1.00;;;;;;;18.75;46.21;92901.81;4997968;28;20479;-79
2023/10/28 01:40:52;;;;;;;2.67;1.20;;;;;;;18.79;46.08;92891.78;4999268;28;20119;-77
2023/10/28 01:43:21;;;;;;;3.95;1.00;;;;;;;18.90;45.93;92907.94;4998659;28;20018;-78
2023/10/28 01:45:46;;;;;;;4.43;1.05;;;;;;;18.68;45.92;92885.59;4996489;28;20046;-78
2023/10/28 01:48:13;;;;;;;8.50;1.52;;;;;;;18.72;46.39;92902.59;4996146;28;20041;-78
2023/10/28 01:50:39;;;;;;;2.72;1.08;;;;;;;18.74;46.63;92894.88;4997017;28;20357;-78
2023/10/28 01:53:04;;;;;;;5.07;1.77;;;;;;;18.78;46.46;92898.34;4998261;28;20038;-79
2023/10/28 01:55:30;;;;;;;2.42;1.15;;;;;;;18.51;46.80;92885.63;4999542;28;20060;-77
2023/10/28 01:57:56;;;;;;;4.53;1.33;;;;;;;18.62;47.01;92897.94;4996805;28;20117;-78
2023/10/28 02:00:22;;;;;;;3.78;1.08;;;;;;;18.65;46.91;92913.31;4999092;28;20479;-77
2023/10/28 02:02:48;;;;;;;3.17;1.30;;;;;;;18.53;46.61;92897.53;4994070;28;20037;-77
2023/10/28 02:05:15;;;;;;;5.65;1.75;;;;;;;18.54;46.86;92909.84;4999403;28;20533;-77
2023/10/28 02:07:40;;;;;;;2.08;1.08;;;;;;;18.41;47.21;92914.09;4997202;28;20735;-78
2023/10/28 02:10:06;;;;;;;1.73;0.95;;;;;;;18.34;47.41;92924.81;4999948;28;20033;-78
2023/10/28 02:12:34;;;;;;;2.80;1.58;;;;;;;18.42;46.49;92910.25;4998430;28;20062;-78
2023/10/28 02:15:06;;;;;;;4.10;1.02;;;;;;;18.47;46.41;92920.63;4998824;28;20034;-77
2023/10/28 02:17:31;;;;;;;2.53;0.90;;;;;;;18.37;46.32;92924.09;4998257;28;20756;-78
2023/10/28 02:19:57;;;;;;;1.98;0.80;;;;;;;18.47;46.06;92926.00;4995525;28;20172;-77
2023/10/28 02:22:23;;;;;;;2.38;1.00;;;;;;;18.34;45.94;92908.69;4998050;28;20507;-77
2023/10/28 02:24:48;;;;;;;2.92;0.80;;;;;;;18.18;46.15;92914.44;4996588;28;20018;-77
2023/10/28 02:27:14;;;;;;;2.58;0.90;;;;;;;18.34;46.73;92941.75;4998527;28;20038;-77
2023/10/28 02:29:40;;;;;;;5.47;0.82;;;;;;;18.37;45.82;92940.22;4997057;28;20492;-77
2023/10/28 02:32:09;;;;;;;1.25;0.98;;;;;;;18.38;46.00;92931.00;4996922;28;20048;-79
2023/10/28 02:34:35;;;;;;;3.78;0.98;;;;;;;18.45;45.91;92939.06;4997469;28;20033;-77
2023/10/28 02:37:00;;;;;;;2.22;0.88;;;;;;;18.48;46.16;92932.19;4997428;28;20053;-77
2023/10/28 02:39:26;;;;;;;3.55;1.02;;;;;;;18.40;46.11;92942.91;4998084;28;20072;-77
2023/10/28 02:41:55;;;;;;;5.18;1.13;;;;;;;18.51;46.03;92937.56;4995260;28;21036;-80
2023/10/28 02:44:21;;;;;;;2.53;0.70;;;;;;;18.52;45.73;92914.09;4998564;28;20591;-79
2023/10/28 02:46:48;;;;;;;3.00;1.55;;;;;;;18.62;45.58;92922.19;4997975;28;20046;-79
2023/10/28 02:49:13;;;;;;;4.70;0.95;;;;;;;18.68;45.58;92906.38;4994105;28;20171;-80
2023/10/28 02:51:39;;;;;;;6.20;1.00;;;;;;;18.93;45.33;92922.56;4998569;28;20040;-81
2023/10/28 02:54:05;;;;;;;0.75;0.65;;;;;;;18.88;45.15;92911.03;4996713;28;20047;-79
2023/10/28 02:56:31;;;;;;;4.55;1.45;;;;;;;18.92;45.08;92921.03;4997162;28;20026;-79
2023/10/28 02:58:57;;;;;;;3.83;1.08;;;;;;;19.04;43.97;92928.72;4995262;28;20044;-79
2023/10/28 03:01:22;;;;;;;6.28;1.00;;;;;;;18.98;44.23;92935.66;4998243;28;20396;-79
2023/10/28 03:03:48;;;;;;;1.75;0.80;;;;;;;18.81;44.28;92916.44;4997206;28;20104;-79
2023/10/28 03:06:13;;;;;;;1.88;0.80;;;;;;;19.04;44.70;92944.88;4997024;28;20396;-80
2023/10/28 03:08:39;;;;;;;3.42;1.10;;;;;;;18.77;45.35;92925.66;4995754;28;20125;-79
2023/10/28 03:11:04;;;;;;;4.90;1.50;;;;;;;18.79;45.50;92913.34;5013962;28;20041;-77
2023/10/28 03:13:30;;;;;;;2.42;0.93;;;;;;;18.74;45.72;92939.88;4996365;28;20054;-80
2023/10/28 03:15:56;;;;;;;4.82;1.45;;;;;;;18.44;47.38;92948.31;4996175;28;20508;-80
2023/10/28 03:18:22;;;;;;;7.18;2.40;;;;;;;18.62;47.06;92946.41;5011271;28;20121;-79
2023/10/28 03:20:48;;;;;;;5.20;2.05;;;;;;;18.30;48.08;92932.13;5012045;28;20844;-79
2023/10/28 03:23:13;;;;;;;7.97;2.38;;;;;;;17.95;49.36;92955.13;4994590;28;20576;-79
2023/10/28 03:25:39;;;;;;;2.58;1.65;;;;;;;17.45;50.58;92948.72;4997769;28;20088;-79
2023/10/28 03:28:04;;;;;;;5.75;1.98;;;;;;;17.67;49.88;92940.75;4997003;28;20029;-79
2023/10/28 03:30:31;;;;;;;7.72;2.03;;;;;;;17.89;49.60;92956.59;4999253;28;20029;-77
2023/10/28 03:32:58;;;;;;;5.03;2.25;;;;;;;17.74;50.25;92981.91;4995855;28;20042;-79
2023/10/28 03:35:24;;;;;;;4.03;2.33;;;;;;;17.42;50.76;92959.47;4996613;28;20124;-79
2023/10/28 03:37:49;;;;;;;3.08;1.90;;;;;;;16.91;52.83;92960.28;4998686;28;20690;-78
2023/10/28 03:40:14;;;;;;;8.98;2.67;;;;;;;16.90;53.10;92984.81;5011024;28;20049;-79
2023/10/28 03:42:40;;;;;;;5.13;1.90;;;;;;;17.17;52.10;92962.78;4997571;28;20598;-80
2023/10/28 03:45:08;;;;;;;5.20;2.92;;;;;;;15.82;53.34;92813.31;4996542;28;20078;-80
2023/10/28 03:47:34;;;;;;;6.80;3.03;;;;;;;16.85;52.96;92956.41;4996489;28;20168;-79
2023/10/28 03:50:00;;;;;;;5.00;2.45;;;;;;;17.10;52.42;92978.84;4996690;28;20037;-80
2023/10/28 03:52:28;;;;;;;4.47;2.30;;;;;;;16.33;55.13;92990.44;4997980;28;20091;-79
2023/10/28 03:54:53;;;;;;;10.90;2.72;;;;;;;16.41;54.37;92983.25;4994006;28;20026;-79
2023/10/28 03:57:19;;;;;;;6.22;2.33;;;;;;;15.81;55.81;92928.94;4997308;28;20029;-79
2023/10/28 03:59:48;;;;;;;6.18;1.92;;;;;;;16.46;54.79;92982.16;4996397;28;20034;-79
2023/10/28 04:02:13;;;;;;;4.25;1.95;;;;;;;16.45;53.43;92959.91;4995876;28;20132;-80
2023/10/28 04:04:39;;;;;;;5.90;2.35;;;;;;;16.38;54.40;92989.34;4998419;28;20033;-80
2023/10/28 04:07:04;;;;;;;5.50;1.67;;;;;;;16.66;53.70;93002.28;4999371;28;20484;-80
2023/10/28 04:09:30;;;;;;;8.30;2.10;;;;;;;16.40;54.30;92976.34;4998850;28;20104;-79
2023/10/28 04:11:55;;;;;;;4.10;1.70;;;;;;;16.18;55.52;93004.06;4997894;28;20036;-79
2023/10/28 04:14:21;;;;;;;5.93;2.70;;;;;;;16.16;55.53;92969.56;5015854;28;20527;-79
2023/10/28 04:16:46;;;;;;;3.90;1.75;;;;;;;16.53;54.64;92982.19;5012081;28;20053;-80
2023/10/28 04:19:12;;;;;;;8.88;2.30;;;;;;;16.69;54.49;93001.53;5017625;28;21153;-79
2023/10/28 04:21:37;;;;;;;5.70;1.83;;;;;;;16.57;52.24;92989.16;5016426;28;20026;-79
2023/10/28 04:24:04;;;;;;;6.05;2.03;;;;;;;16.60;54.07;93004.50;5016805;28;20082;-78
2023/10/28 04:26:30;;;;;;;4.18;1.35;;;;;;;16.67;53.74;92999.19;5013949;28;20040;-79
2023/10/28 04:28:59;;;;;;;5.32;1.77;;;;;;;16.81;53.04;93001.25;5016013;28;20033;-78
2023/10/28 04:31:29;;;;;;;7.40;1.90;;;;;;;16.53;53.02;92971.47;5016578;28;20037;-78
2023/10/28 04:33:56;;;;;;;6.88;2.55;;;;;;;16.76;52.62;93001.59;5015807;28;20029;-76
2023/10/28 04:36:25;;;;;;;5.57;3.03;;;;;;;15.69;56.82;92993.53;4999382;28;20072;-81
2023/10/28 04:38:50;;;;;;;6.38;2.10;;;;;;;15.93;56.71;93025.25;5017466;28;20064;-80
2023/10/28 04:41:16;;;;;;;6.93;2.55;;;;;;;15.84;56.92;92992.59;5015217;28;20476;-79
2023/10/28 04:43:41;;;;;;;7.45;2.45;;;;;;;16.10;57.25;93035.41;5016468;28;20044;-79
2023/10/28 04:46:07;;;;;;;3.95;2.28;;;;;;;16.25;55.82;92994.19;5016024;28;20479;-79
2023/10/28 04:48:32;;;;;;;5.18;2.45;;;;;;;16.40;55.51;93032.69;5016275;28;20026;-79
2023/10/28 04:50:58;;;;;;;4.72;1.27;;;;;;;16.40;53.44;93005.09;5016413;28;20454;-79
2023/10/28 04:53:23;;;;;;;8.20;1.90;;;;;;;16.57;52.54;93017.91;5015552;28;20048;-79
2023/10/28 04:55:49;;;;;;;7.88;1.80;;;;;;;16.40;54.25;93031.91;4999561;28;20053;-79
2023/10/28 04:58:15;;;;;;;5.82;3.03;;;;;;;16.01;55.81;93013.44;5014929;28;20013;-79
2023/10/28 05:00:41;;;;;;;6.05;1.92;;;;;;;16.01;56.50;93037.59;5016590;28;20021;-79
2023/10/28 05:03:06;;;;;;;6.85;2.55;;;;;;;15.43;59.30;93032.59;5015160;28;20050;-79
2023/10/28 05:05:34;;;;;;;8.77;2.65;;;;;;;15.41;59.84;93039.44;5015033;28;20134;-80
2023/10/28 05:07:59;;;;;;;10.63;2.80;;;;;;;15.81;58.45;93049.59;5014863;28;20437;-78
2023/10/28 05:10:25;;;;;;;5.93;2.55;;;;;;;15.86;58.51;93043.91;5013314;28;20037;-79
2023/10/28 05:12:50;;;;;;;7.70;2.15;;;;;;;15.66;59.24;93053.22;5015220;28;20752;-79
2023/10/28 05:15:15;;;;;;;5.88;2.38;;;;;;;16.08;58.24;93069.09;4997316;28;20132;-79
2023/10/28 05:17:41;;;;;;;3.55;2.03;;;;;;;16.41;56.96;93071.81;5015502;28;20056;-79
2023/10/28 05:20:08;;;;;;;5.75;2.42;;;;;;;16.55;56.22;93055.84;5014155;28;20096;-80
2023/10/28 05:22:38;;;;;;;7.40;2.75;;;;;;;16.03;58.55;93070.19;5015137;28;20121;-79
2023/10/28 05:25:07;;;;;;;5.20;2.00;;;;;;;16.49;56.73;93084.16;4995308;28;20029;-78
2023/10/28 05:27:32;;;;;;;7.03;2.10;;;;;;;16.67;56.22;93090.47;5016456;28;21145;-79
2023/10/28 05:29:57;;;;;;;6.28;2.83;;;;;;;16.36;56.94;93064.09;5018185;28;20025;-79
2023/10/28 05:32:23;;;;;;;4.10;1.95;;;;;;;16.54;56.36;93088.41;5031645;28;20044;-79
2023/10/28 05:34:51;;;;;;;8.45;1.98;;;;;;;16.54;56.24;93077.69;5006633;28;20388;-75
2023/10/28 05:37:17;;;;;;;7.00;1.90;;;;;;;16.57;56.06;93079.66;4997500;28;20631;-79
2023/10/28 05:39:42;;;;;;;7.18;2.03;;;;;;;16.79;55.41;93100.19;5015105;28;20509;-79
2023/10/28 05:42:08;;;;;;;6.55;1.98;;;;;;;16.64;56.18;93079.72;4997941;28;20099;-79
2023/10/28 05:44:35;;;;;;;4.40;2.03;;;;;;;16.91;55.13;93097.25;5013953;28;20125;-79
2023/10/28 05:47:01;;;;;;;9.35;2.15;;;;;;;16.97;54.98;93103.81;5016779;28;20152;-80
2023/10/28 05:49:26;;;;;;;9.68;2.05;;;;;;;17.05;54.76;93118.88;5018462;28;20075;-80
2023/10/28 05:51:52;;;;;;;5.10;2.22;;;;;;;17.09;54.63;93116.97;5001035;28;20737;-80
2023/10/28 05:54:17;;;;;;;8.60;2.17;;;;;;;17.01;54.85;93107.28;5016497;28;20041;-80
2023/10/28 05:56:42;;;;;;;5.28;2.67;;;;;;;17.17;54.47;93129.34;5002252;28;20026;-80
2023/10/28 05:59:11;;;;;;;8.60;2.08;;;;;;;17.18;54.17;93116.69;5015726;28;20037;-80
2023/10/28 06:01:36;;;;;;;5.72;2.22;;;;;;;17.08;54.37;93120.81;5019083;28;20067;-79
2023/10/28 06:04:02;;;;;;;6.90;2.33;;;;;;;17.14;54.38;93135.47;5017448;28;20033;-79
2023/10/28 06:06:27;;;;;;;6.07;1.98;;;;;;;17.14;54.43;93134.72;5018308;28;20051;-79
2023/10/28 06:08:54;;;;;;;5.72;2.05;;;;;;;17.07;55.03;93119.25;4996220;28;20359;-80
2023/10/28 06:11:19;;;;;;;5.13;2.22;;;;;;;17.23;55.03;93142.44;4997913;28;20431;-79
2023/10/28 06:13:45;;;;;;;14.50;2.90;;;;;;;17.29;54.44;93147.13;5017758;28;20060;-80
2023/10/28 06:16:11;;;;;;;4.43;2.03;;;;;;;17.45;54.46;93141.50;5016039;28;20049;-79
2023/10/28 06:18:37;;;;;;;8.02;2.15;;;;;;;17.38;54.03;93138.75;5015747;28;20075;-79
2023/10/28 06:21:03;;;;;;;8.63;3.42;;;;;;;17.52;54.58;93155.00;5016930;28;20038;-79
2023/10/28 06:23:29;;;;;;;8.77;2.60;;;;;;;17.43;54.41;93133.03;5017994;28;20060;-79
2023/10/28 06:25:55;;;;;;;5.53;2.17;;;;;;;17.59;54.02;93161.22;5000932;28;20128;-79
2023/10/28 06:28:21;;;;;;;7.85;2.22;;;;;;;17.51;54.07;93140.00;5018067;28;20574;-80
2023/10/28 06:30:47;;;;;;;3.97;2.13;;;;;;;17.66;53.88;93165.06;5018390;28;20105;-79
2023/10/28 06:33:13;;;;;;;5.97;2.40;;;;;;;17.53;54.41;93168.06;5028728;28;20073;-79
2023/10/28 06:35:39;;;;;;;4.93;1.98;;;;;;;17.51;54.24;93158.81;5040264;28;20080;-77
2023/10/28 06:38:06;;;;;;;7.05;4.10;;;;;;;17.78;53.85;93179.03;5036753;28;20555;-78
2023/10/28 06:40:40;;;;;;;9.18;5.20;;;;;;;17.65;54.17;93177.75;5018078;28;20033;-78
2023/10/28 06:43:06;;;;;;;8.27;2.63;;;;;;;17.72;54.08;93191.25;5014985;28;20037;-79
2023/10/28 06:45:31;;;;;;;9.40;2.88;;;;;;;17.58;53.80;93169.63;5028060;28;20025;-79
2023/10/28 06:47:57;;;;;;;6.22;2.15;;;;;;;17.50;54.51;93200.31;5023207;28;20049;-79
2023/10/28 06:50:26;;;;;;;8.38;3.65;;;;;;;17.38;54.80;93192.50;5036524;28;20045;-78
2023/10/28 06:52:52;;;;;;;6.60;3.05;;;;;;;17.53;54.25;93211.09;5039408;28;20048;-79
2023/10/28 06:55:18;;;;;;;10.95;3.05;;;;;;;17.68;53.89;93203.91;5011582;28;20021;-79
2023/10/28 06:57:44;;;;;;;8.98;3.05;;;;;;;17.67;53.90;93210.44;5011518;28;20043;-79
2023/10/28 07:00:15;;;;;;;10.80;2.88;;;;;;;17.68;53.36;93220.03;5010237;28;20041;-78
2023/10/28 07:02:42;;;;;;;7.15;2.35;;;;;;;17.65;53.58;93206.56;4998111;28;20030;-78
2023/10/28 07:05:09;;;;;;;6.22;2.67;;;;;;;17.83;53.45;93219.03;5014907;28;20085;-79
2023/10/28 07:07:35;;;;;;;7.35;3.15;;;;;;;17.73;52.61;93187.44;5015377;28;20176;-80
2023/10/28 07:10:01;;;;;;;4.95;3.10;;;;;;;18.01;52.71;93217.25;5013452;28;20021;-79
2023/10/28 07:12:28;;;;;;;10.75;2.17;;;;;;;18.12;52.32;93208.50;4995772;28;20021;-79
2023/10/28 07:14:54;;;;;;;5.25;1.90;;;;;;;18.29;51.99;93232.81;4997233;28;20342;-79
2023/10/28 07:17:19;;;;;;;5.35;2.78;;;;;;;18.40;51.81;93232.88;5014848;28;20556;-78
2023/10/28 07:19:45;;;;;;;9.48;3.25;;;;;;;18.36;52.10;93232.88;5015515;28;20029;-78
2023/10/28 07:22:10;;;;;;;6.85;2.30;;;;;;;18.39;51.89;93239.41;5014831;28;20403;-78
2023/10/28 07:24:35;;;;;;;7.28;2.22;;;;;;;18.23;51.88;93237.03;5017059;28;20666;-79
2023/10/28 07:27:04;;;;;;;5.47;2.33;;;;;;;18.30;51.60;93231.66;4998565;28;20502;-78
2023/10/28 07:29:30;;;;;;;5.97;1.83;;;;;;;17.88;52.26;93218.69;5016384;28;20116;-79
2023/10/28 07:31:56;;;;;;;6.53;1.73;;;;;;;18.30;51.93;93237.06;5015684;28;20033;-79
2023/10/28 07:34:22;;;;;;;7.53;2.05;;;;;;;17.97;52.11;93240.69;5016366;28;20052;-79
2023/10/28 07:36:47;;;;;;;5.22;1.65;;;;;;;18.02;52.26;93239.56;5017258;28;20479;-78
2023/10/28 07:39:13;;;;;;;5.20;1.70;;;;;;;18.15;52.03;93240.03;5017199;28;20103;-79
2023/10/28 07:41:38;;;;;;;5.80;1.60;;;;;;;18.17;51.71;93226.97;5015857;28;20639;-78
2023/10/28 07:44:04;;;;;;;4.85;2.08;;;;;;;18.04;52.64;93246.09;4999045;28;20131;-79
2023/10/28 07:46:30;;;;;;;7.47;2.30;;;;;;;18.28;52.50;93244.75;5014768;28;20045;-78
2023/10/28 07:48:56;;;;;;;6.93;2.30;;;;;;;18.30;52.46;93249.75;5002090;28;20476;-79
2023/10/28 07:51:22;;;;;;;7.00;2.17;;;;;;;18.28;52.17;93250.13;5017055;28;20116;-78
2023/10/28 07:53:50;;;;;;;10.35;2.80;;;;;;;17.87;53.44;93246.72;5013468;28;20106;-79
2023/10/28 07:56:19;;;;;;;10.23;2.42;;;;;;;17.63;53.97;93247.28;5016803;28;20037;-78
2023/10/28 07:58:45;;;;;;;6.15;2.15;;;;;;;17.73;53.70;93246.59;4996502;28;20550;-79
2023/10/28 08:01:15;;;;;;;8.63;3.30;;;;;;;17.82;53.39;93249.75;5017156;28;20112;-78
2023/10/28 08:03:43;;;;;;;11.18;3.58;;;;;;;17.94;53.51;93262.94;4997801;28;20025;-78
2023/10/28 08:06:10;;;;;;;9.80;2.78;;;;;;;18.23;52.98;93263.94;4998786;28;20559;-78
2023/10/28 08:08:36;;;;;;;5.38;3.33;;;;;;;17.99;52.74;93262.59;5013114;28;20403;-79
2023/10/28 08:11:05;;;;;;;6.80;3.13;;;;;;;17.76;53.68;93266.59;5016501;28;20569;-79
2023/10/28 08:13:32;;;;;;;7.82;2.65;;;;;;;17.55;53.97;93241.03;5014740;28;20041;-78
2023/10/28 08:15:57;;;;;;;7.07;2.80;;;;;;;17.72;53.69;93239.66;5017177;28;20081;-78
2023/10/28 08:18:27;;;;;;;8.52;2.88;;;;;;;18.04;54.26;93264.16;5015250;28;20472;-79
2023/10/28 08:20:53;;;;;;;12.60;5.15;;;;;;;18.17;52.60;93248.50;4999416;28;20042;-79
2023/10/28 08:23:18;;;;;;;15.55;3.55;;;;;;;18.40;52.10;93246.34;5014155;28;20038;-79
2023/10/28 08:25:43;;;;;;;7.78;3.47;;;;;;;18.60;51.73;93255.69;5015284;28;20057;-78
2023/10/28 08:28:09;;;;;;;8.98;3.08;;;;;;;18.87;51.81;93258.94;5015520;28;20040;-78
2023/10/28 08:30:35;;;;;;;8.82;2.33;;;;;;;18.80;50.33;93253.53;5016265;28;20048;-79
2023/10/28 08:33:01;;;;;;;6.07;2.03;;;;;;;18.97;50.88;93258.19;5014803;28;20435;-79
2023/10/28 08:35:28;;;;;;;9.50;2.38;;;;;;;18.96;50.24;93259.38;5011858;28;20046;-79
2023/10/28 08:37:54;;;;;;;7.43;2.67;;;;;;;18.74;50.49;93255.78;5001640;28;20049;-79
2023/10/28 08:40:20;;;;;;;8.27;2.45;;;;;;;18.63;50.71;93273.78;5015151;28;20557;-79
2023/10/28 08:42:45;;;;;;;9.00;2.33;;;;;;;18.45;50.72;93259.44;5016763;28;20104;-78
2023/10/28 08:45:11;;;;;;;12.07;2.40;;;;;;;18.52;50.62;93267.59;5016499;28;20052;-79
2023/10/28 08:47:40;;;;;;;6.47;2.50;;;;;;;18.89;49.84;93278.19;5010347;28;20045;-79
2023/10/28 08:50:08;;;;;;;4.85;1.73;;;;;;;18.81;49.38;93260.47;5017052;28;20088;-79
2023/10/28 08:52:38;;;;;;;9.07;2.80;;;;;;;18.87;50.48;93264.34;5015065;28;20041;-79
2023/10/28 08:55:04;;;;;;;7.88;2.58;;;;;;;19.09;49.61;93278.66;4995890;28;20042;-78
2023/10/28 08:57:30;;;;;;;7.65;3.08;;;;;;;18.87;49.49;93248.19;5001487;28;20013;-78
2023/10/28 08:59:56;;;;;;;3.63;2.17;;;;;;;18.97;49.94;93270.94;4997594;28;20361;-79
2023/10/28 09:02:24;;;;;;;9.07;2.47;;;;;;;19.19;50.24;93280.63;5015972;28;20055;-79
2023/10/28 09:04:49;;;;;;;6.93;2.88;;;;;;;19.45;49.17;93272.28;5013165;28;20045;-78
2023/10/28 09:07:15;;;;;;;6.85;2.20;;;;;;;19.64;49.09;93269.22;4997637;28;20108;-79
2023/10/28 09:09:40;;;;;;;9.48;2.55;;;;;;;19.83;48.69;93276.19;5015470;28;20654;-78
2023/10/28 09:12:09;;;;;;;8.52;2.20;;;;;;;19.82;47.62;93273.88;5000319;28;20052;-79
2023/10/28 09:14:34;;;;;;;10.35;2.72;;;;;;;19.46;47.30;93240.66;5013622;28;20649;-80
2023/10/28 09:17:02;;;;;;;10.68;2.60;;;;;;;19.80;46.99;93276.19;5014863;28;20172;-80
2023/10/28 09:19:29;;;;;;;9.10;3.05;;;;;;;19.82;46.95;93273.88;4998711;28;20041;-78
2023/10/28 09:21:55;;;;;;;13.25;3.40;;;;;;;19.89;46.49;93257.69;5018773;28;20390;-79
2023/10/28 09:24:21;;;;;;;10.18;2.53;;;;;;;19.83;46.21;93265.41;5019064;28;20044;-79
2023/10/28 09:26:50;;;;;;;5.90;1.95;;;;;;;20.17;47.26;93269.31;5018185;28;20038;-79
2023/10/28 09:29:42;;;;;;;6.32;2.45;;;;;;;20.23;45.86;93277.78;5018910;28;20033;-79
2023/10/28 09:32:08;;;;;;;6.03;1.80;;;;;;;20.13;46.01;93273.13;5013920;28;20510;-79
2023/10/28 09:34:34;;;;;;;7.97;3.20;;;;;;;20.11;46.22;93272.72;5018470;28;20092;-79
2023/10/28 09:37:00;;;;;;;4.07;2.30;;;;;;;20.19;45.76;93244.59;5001465;28;20017;-79
2023/10/28 09:39:26;;;;;;;9.40;2.28;;;;;;;19.82;46.51;93236.09;5003197;28;20037;-78
2023/10/28 09:41:52;;;;;;;7.43;1.88;;;;;;;19.22;44.84;93252.91;4998464;28;20048;-79
2023/10/28 09:44:19;;;;;;;8.88;1.52;;;;;;;18.89;44.50;93248.56;5016896;28;20505;-78
2023/10/28 09:46:48;;;;;;;4.50;1.40;;;;;;;19.02;44.84;93251.69;5017475;28;20034;-79
2023/10/28 09:49:17;;;;;;;4.72;1.48;;;;;;;19.21;44.70;93243.28;5017301;28;20495;-80
2023/10/28 09:51:48;;;;;;;7.50;1.42;;;;;;;19.14;44.98;93257.50;5018429;28;20037;-78
2023/10/28 09:54:19;;;;;;;4.93;1.30;;;;;;;19.20;43.90;93260.63;5000010;28;20066;-79
2023/10/28 09:56:46;;;;;;;9.07;1.48;;;;;;;19.19;42.52;93246.38;5018569;28;20025;-78
2023/10/28 09:59:20;;;;;;;5.45;1.10;;;;;;;19.36;42.20;93236.75;5017618;28;20061;-78
2023/10/28 10:01:59;;;;;;;5.03;1.10;;;;;;;19.40;42.16;93259.13;5019881;28;20033;-79
2023/10/28 10:04:36;;;;;;;8.77;1.50;;;;;;;19.53;42.16;93229.91;5016642;28;20608;-79
2023/10/28 10:07:02;;;;;;;7.30;1.20;;;;;;;19.71;42.18;93228.75;4999924;28;20476;-78
2023/10/28 10:09:28;;;;;;;5.35;1.70;;;;;;;19.90;41.59;93221.44;5019797;28;20090;-78
2023/10/28 10:11:56;;;;;;;4.35;1.15;;;;;;;;;;5018821;28;20076;-80
2023/10/28 10:14:22;;;;;;;3.97;1.20;;;;;;;19.45;40.58;93142.84;5017417;28;20503;-79
2023/10/28 10:17:02;;;;;;;4.38;1.52;;;;;;;20.34;40.90;93231.84;5015382;28;20076;-79
2023/10/28 10:19:34;;;;;;;5.85;1.27;;;;;;;20.35;38.60;93217.97;5018915;28;20041;-80
2023/10/28 10:22:02;;;;;;;6.78;1.30;;;;;;;20.38;39.10;93219.13;5016485;28;20033;-78
2023/10/28 10:24:28;;;;;;;6.75;1.42;;;;;;;20.46;39.91;93199.81;4997781;28;20043;-79
2023/10/28 10:26:55;;;;;;;3.33;1.08;;;;;;;20.64;37.46;93221.38;5017512;28;20481;-80
2023/10/28 10:29:21;;;;;;;5.47;1.20;;;;;;;20.60;38.19;93232.19;5018024;28;20044;-78
2023/10/28 10:31:51;;;;;;;4.43;1.30;;;;;;;20.60;38.67;93220.63;5015845;28;20033;-79
2023/10/28 10:34:34;;;;;;;5.68;0.90;;;;;;;20.58;38.38;93218.28;5017112;28;20817;-79
2023/10/28 10:37:00;;;;;;;4.68;0.90;;;;;;;20.85;37.79;93228.66;5017120;28;20076;-79
2023/10/28 10:39:26;;;;;;;7.30;1.38;;;;;;;20.97;36.94;93225.56;5020772;28;20029;-79
2023/10/28 10:41:56;;;;;;;5.50;1.02;;;;;;;20.80;37.63;93202.03;4998376;28;20074;-79
2023/10/28 10:44:33;;;;;;;6.28;0.93;;;;;;;20.76;37.46;93220.19;4998757;28;20054;-78
2023/10/28 10:46:59;;;;;;;4.18;1.23;;;;;;;21.01;37.38;93229.00;5018125;28;20104;-79
2023/10/28 10:49:25;;;;;;;3.78;1.20;;;;;;;21.11;36.64;93228.19;5018281;28;20175;-79
2023/10/28 10:51:51;;;;;;;4.10;1.05;;;;;;;21.14;37.19;93219.28;5017217;28;20029;-79
2023/10/28 10:54:20;;;;;;;2.55;1.30;;;;;;;21.11;36.28;93206.56;5016858;28;20137;-79
2023/10/28 10:56:46;;;;;;;3.13;0.90;;;;;;;21.13;35.94;93211.56;5017333;28;20455;-79
2023/10/28 10:59:12;;;;;;;5.18;1.00;;;;;;;21.15;36.13;93228.94;4999739;28;20032;-79
2023/10/28 11:01:40;;;;;;;2.92;1.10;;;;;;;21.07;37.41;93205.03;4995373;28;20048;-79
2023/10/28 11:04:07;;;;;;;4.85;2.13;;;;;;;21.07;37.30;93227.41;5017548;28;20053;-79
2023/10/28 11:06:34;;;;;;;4.38;1.50;;;;;;;21.00;36.81;93195.03;5017559;28;20021;-79
2023/10/28 11:09:06;;;;;;;6.10;0.80;;;;;;;20.63;37.56;93213.69;5017493;28;20381;-79
2023/10/28 11:11:35;;;;;;;4.15;0.98;;;;;;;20.99;36.04;93215.09;5016818;28;20084;-79
2023/10/28 11:14:05;;;;;;;3.72;0.85;;;;;;;20.95;36.71;93219.75;4999407;28;20045;-79
2023/10/28 11:16:32;;;;;;;3.78;0.90;;;;;;;20.42;35.52;93192.88;5017021;28;20124;-80
2023/10/28 11:19:03;;;;;;;3.15;0.70;;;;;;;20.65;36.04;93212.13;5015090;28;20036;-78
2023/10/28 11:21:32;;;;;;;3.30;0.70;;;;;;;20.80;37.94;93204.72;5019003;28;20037;-80
2023/10/28 11:23:58;;;;;;;2.35;0.73;;;;;;;20.91;35.97;93213.59;5012638;28;20073;-78
2023/10/28 11:26:24;;;;;;;4.35;1.08;;;;;;;21.06;35.98;93217.78;5018912;28;20034;-79
2023/10/28 11:28:49;;;;;;;3.83;0.85;;;;;;;21.14;34.90;93230.09;5015872;28;20820;-80
2023/10/28 11:31:19;;;;;;;4.10;0.80;;;;;;;21.14;34.57;93219.28;5017892;28;20032;-80